Time;durP1;ratioP1;P1;durP2;ratioP2;P2;SDS_P1;SDS_P2;PMS_P1;PMS_P2;Temp;Humidity;BMP_temperature;BMP_pressure;BME280_temperature;BME280_humidity;BME280_pressure;Samples;Min_cycle;Max_cycle;Signal;HPM_P1;HPM_P2
2022/08/16 00:00:10;;;;;;;12.55;8.40;;;;;;;24.00;61.36;100426.22;5092733;28;20044;-53
2022/08/16 00:02:50;;;;;;;11.65;7.57;;;;;;;23.98;61.53;100437.72;5077095;28;20032;-54
2022/08/16 00:05:19;;;;;;;12.52;8.25;;;;;;;23.97;61.60;100440.88;5091603;28;20048;-55
2022/08/16 00:07:48;;;;;;;12.35;8.40;;;;;;;23.96;61.74;100442.06;5092685;28;20031;-55
2022/08/16 00:10:24;;;;;;;12.05;8.07;;;;;;;23.92;61.78;100438.41;5091942;28;20058;-49
2022/08/16 00:12:53;;;;;;;13.07;8.23;;;;;;;23.90;61.88;100444.31;5057786;28;20044;-49
2022/08/16 00:15:27;;;;;;;11.00;8.07;;;;;;;23.89;62.04;100447.47;5073568;28;20119;-49
2022/08/16 00:18:17;;;;;;;11.73;7.45;;;;;;;23.88;62.03;100445.84;5077440;28;20123;-48
2022/08/16 00:20:48;;;;;;;11.35;7.57;;;;;;;23.89;62.19;100450.28;5092657;28;20036;-51
2022/08/16 00:23:19;;;;;;;15.48;7.15;;;;;;;23.87;62.27;100455.38;5075287;28;20036;-50
2022/08/16 00:26:07;;;;;;;9.80;6.35;;;;;;;23.86;61.95;100454.59;5091399;28;20028;-48
2022/08/16 00:28:54;;;;;;;11.82;7.80;;;;;;;23.87;62.09;100460.97;5092056;28;20046;-47
2022/08/16 00:31:22;;;;;;;11.07;7.13;;;;;;;23.85;62.09;100460.50;5092513;28;20044;-48
2022/08/16 00:33:51;;;;;;;12.88;7.93;;;;;;;23.83;62.27;100460.06;5094842;28;20055;-50
2022/08/16 00:36:19;;;;;;;12.15;7.70;;;;;;;23.78;62.67;100464.75;5093940;28;20525;-47
2022/08/16 00:38:47;;;;;;;11.80;8.43;;;;;;;23.75;62.90;100461.91;5094985;28;20089;-47
2022/08/16 00:41:14;;;;;;;12.60;8.65;;;;;;;23.73;62.83;100462.25;5095733;28;20044;-47
2022/08/16 00:43:43;;;;;;;13.68;8.10;;;;;;;23.69;63.20;100460.56;5077557;28;20435;-47
2022/08/16 00:46:21;;;;;;;13.85;8.85;;;;;;;23.59;63.39;100456.38;5093561;28;20095;-48
2022/08/16 00:49:07;;;;;;;12.40;8.25;;;;;;;23.51;64.11;100460.19;5095408;28;20043;-48
2022/08/16 00:51:47;;;;;;;12.82;8.80;;;;;;;23.51;64.09;100460.19;5095785;28;20038;-47
2022/08/16 00:54:26;;;;;;;13.15;8.88;;;;;;;23.48;64.48;100461.72;5078843;28;20491;-46
2022/08/16 00:56:54;;;;;;;12.20;9.20;;;;;;;23.44;64.59;100466.41;5094085;28;20036;-47
2022/08/16 00:59:29;;;;;;;13.30;8.13;;;;;;;23.45;64.52;100465.25;5095427;28;20069;-48
2022/08/16 01:02:01;;;;;;;11.13;6.63;;;;;;;23.48;64.32;100464.50;5061234;28;20044;-49
2022/08/16 01:04:49;;;;;;;12.30;8.10;;;;;;;23.50;64.40;100459.41;5077405;28;20032;-49
2022/08/16 01:07:37;;;;;;;11.18;7.35;;;;;;;23.53;64.38;100464.22;5073301;28;20051;-48
2022/08/16 01:10:21;;;;;;;10.00;7.15;;;;;;;23.55;64.04;100466.66;5076575;28;20040;-47
2022/08/16 01:13:23;;;;;;;12.38;7.70;;;;;;;23.56;63.75;100468.25;5062196;28;20044;-48
2022/08/16 01:16:09;;;;;;;15.05;9.18;;;;;;;23.54;64.14;100465.00;5093392;28;20441;-48
2022/08/16 01:19:15;;;;;;;11.50;9.00;;;;;;;23.52;64.40;100461.78;5063832;28;20040;-49
2022/08/16 01:21:57;;;;;;;11.73;9.32;;;;;;;23.43;64.75;100462.03;5049829;28;20097;-50
2022/08/16 01:24:51;;;;;;;12.82;10.30;;;;;;;23.36;65.35;100459.88;5063451;28;20051;-49
2022/08/16 01:27:32;;;;;;;12.77;8.68;;;;;;;23.35;65.41;100466.59;5059943;28;20039;-47
2022/08/16 01:30:14;;;;;;;14.23;11.60;;;;;;;23.34;65.26;100465.00;5094608;28;20040;-47
2022/08/16 01:32:50;;;;;;;15.15;10.55;;;;;;;23.27;66.05;100456.50;5061332;28;20044;-49
2022/08/16 01:35:33;;;;;;;12.88;9.95;;;;;;;23.18;66.37;100453.13;5061670;28;20048;-50
2022/08/16 01:38:30;;;;;;;14.88;9.82;;;;;;;23.11;66.58;100458.50;5060055;28;20092;-50
2022/08/16 01:41:09;;;;;;;16.23;11.25;;;;;;;23.06;66.79;100462.38;5076556;28;20039;-52
2022/08/16 01:43:38;;;;;;;15.95;10.60;;;;;;;23.01;67.69;100459.06;5076406;28;20040;-50
2022/08/16 01:46:17;;;;;;;18.50;9.82;;;;;;;23.01;67.60;100459.88;5076094;28;20044;-50
2022/08/16 01:49:17;;;;;;;15.38;9.23;;;;;;;23.07;67.29;100457.63;5075297;28;20043;-50
2022/08/16 01:51:53;;;;;;;13.85;8.88;;;;;;;23.09;67.25;100458.06;5075709;28;20445;-49
2022/08/16 01:54:28;;;;;;;14.73;9.10;;;;;;;23.09;67.32;100455.28;5076777;28;20044;-49
2022/08/16 01:56:59;;;;;;;12.38;7.65;;;;;;;23.12;66.96;100460.13;5075369;28;20052;-49
2022/08/16 01:59:29;;;;;;;13.80;8.20;;;;;;;23.15;66.58;100460.19;5092562;28;20044;-48
2022/08/16 02:01:57;;;;;;;11.25;8.55;;;;;;;23.17;66.48;100463.44;5076447;28;20056;-49
2022/08/16 02:04:29;;;;;;;15.20;8.43;;;;;;;23.17;66.84;100459.84;5074592;28;20044;-49
2022/08/16 02:07:19;;;;;;;17.25;10.88;;;;;;;23.16;67.18;100456.28;5075903;28;20036;-48
2022/08/16 02:09:50;;;;;;;13.63;10.10;;;;;;;23.13;67.35;100456.97;5075542;28;20105;-49
2022/08/16 02:12:29;;;;;;;12.90;8.82;;;;;;;23.11;67.47;100455.72;5055658;28;20058;-49
2022/08/16 02:15:20;;;;;;;16.55;10.90;;;;;;;23.07;67.70;100463.19;5074640;28;20051;-48
2022/08/16 02:17:58;;;;;;;11.70;8.20;;;;;;;23.04;67.63;100458.34;5076294;28;20040;-50
2022/08/16 02:20:31;;;;;;;15.43;10.05;;;;;;;23.00;67.61;100460.25;5093434;28;20044;-51
2022/08/16 02:23:00;;;;;;;11.93;8.27;;;;;;;22.92;68.19;100457.28;5075920;28;20089;-53
2022/08/16 02:25:33;;;;;;;14.65;10.40;;;;;;;22.87;68.64;100460.31;5093104;28;20521;-50
2022/08/16 02:28:21;;;;;;;15.15;10.15;;;;;;;22.84;68.75;100454.69;5093828;28;20047;-50
2022/08/16 02:30:51;;;;;;;14.15;8.70;;;;;;;22.83;68.63;100451.09;5058827;28;20044;-48
2022/08/16 02:33:21;;;;;;;13.48;10.07;;;;;;;22.79;68.72;100461.31;5059083;28;20491;-48
2022/08/16 02:36:12;;;;;;;14.70;9.77;;;;;;;22.68;69.36;100463.84;5073956;28;20047;-50
2022/08/16 02:39:01;;;;;;;15.50;9.98;;;;;;;22.63;69.70;100461.31;5068027;28;20051;-50
2022/08/16 02:41:30;;;;;;;14.20;8.90;;;;;;;22.63;69.66;100460.50;5058749;28;20044;-50
2022/08/16 02:44:01;;;;;;;15.43;8.40;;;;;;;22.67;69.08;100464.19;5075693;28;20517;-50
2022/08/16 02:46:29;;;;;;;14.25;8.05;;;;;;;22.71;68.88;100451.22;5074456;28;20040;-50
2022/08/16 02:49:03;;;;;;;12.32;7.60;;;;;;;22.76;68.23;100454.50;5075293;28;20048;-51
2022/08/16 02:51:34;;;;;;;14.90;10.15;;;;;;;22.74;68.86;100456.03;5090868;28;20081;-50
2022/08/16 02:54:04;;;;;;;13.68;9.30;;;;;;;22.72;69.00;100453.59;5075470;28;20620;-51
2022/08/16 02:56:36;;;;;;;14.50;8.75;;;;;;;22.68;69.05;100455.50;5058385;28;20040;-50
2022/08/16 02:59:04;;;;;;;17.40;8.98;;;;;;;22.70;68.86;100452.34;5058642;28;20113;-52
2022/08/16 03:01:40;;;;;;;12.02;8.68;;;;;;;22.66;69.09;100454.25;5075030;28;20495;-51
2022/08/16 03:04:19;;;;;;;13.13;8.40;;;;;;;22.64;69.09;100451.84;5075585;28;20032;-56
2022/08/16 03:06:57;;;;;;;12.43;8.70;;;;;;;22.63;69.04;100449.41;5092481;28;20486;-51
2022/08/16 03:09:38;;;;;;;15.68;8.70;;;;;;;22.60;69.23;100442.59;5074976;28;20040;-55
2022/08/16 03:12:06;;;;;;;13.02;8.77;;;;;;;22.59;69.28;100448.53;5074696;28;20047;-51
2022/08/16 03:14:34;;;;;;;12.27;8.88;;;;;;;22.59;69.15;100438.22;5074179;28;20410;-55
2022/08/16 03:17:05;;;;;;;14.90;9.07;;;;;;;22.58;69.21;100441.34;5075126;28;20044;-55
2022/08/16 03:19:37;;;;;;;13.68;9.23;;;;;;;22.59;69.18;100437.41;5058112;28;20601;-55
2022/08/16 03:22:23;;;;;;;14.07;9.15;;;;;;;22.57;68.96;100439.75;5074995;28;20103;-52
2022/08/16 03:25:00;;;;;;;11.85;8.50;;;;;;;22.58;68.79;100441.34;5073580;28;20043;-50
2022/08/16 03:27:32;;;;;;;12.35;8.65;;;;;;;22.55;68.79;100438.13;5074365;28;20050;-51
2022/08/16 03:30:09;;;;;;;13.38;8.30;;;;;;;22.55;68.54;100437.31;5074540;28;20032;-49
2022/08/16 03:32:49;;;;;;;13.90;8.95;;;;;;;22.56;68.73;100444.47;5092527;28;20384;-49
2022/08/16 03:35:24;;;;;;;15.15;8.77;;;;;;;22.55;68.57;100454.78;5073790;28;20052;-48
2022/08/16 03:38:05;;;;;;;14.45;9.20;;;;;;;22.51;68.86;100447.50;5075025;28;20048;-54
2022/08/16 03:40:55;;;;;;;11.40;7.53;;;;;;;22.48;68.72;100445.47;5082467;28;20048;-52
2022/08/16 03:43:25;;;;;;;12.75;8.50;;;;;;;22.47;68.89;100458.53;5091577;28;20062;-52
2022/08/16 03:46:15;;;;;;;12.52;8.20;;;;;;;22.46;68.85;100462.47;5066003;28;20037;-53
2022/08/16 03:49:08;;;;;;;12.32;8.82;;;;;;;22.45;68.75;100463.66;5062887;28;20040;-51
2022/08/16 03:51:37;;;;;;;12.23;7.78;;;;;;;22.42;68.91;100472.69;5092778;28;20066;-50
2022/08/16 03:54:06;;;;;;;10.30;7.60;;;;;;;22.41;68.76;100476.63;5074446;28;20047;-50
2022/08/16 03:56:41;;;;;;;10.30;7.93;;;;;;;22.41;68.79;100475.81;5073833;28;20047;-49
2022/08/16 03:59:29;;;;;;;13.15;9.02;;;;;;;22.36;69.16;100470.53;5060457;28;20040;-46
2022/08/16 04:02:00;;;;;;;15.98;8.75;;;;;;;22.30;69.48;100470.00;5074480;28;20096;-48
2022/08/16 04:04:36;;;;;;;12.80;8.02;;;;;;;22.28;69.43;100475.09;5073547;28;20040;-47
2022/08/16 04:07:06;;;;;;;10.68;7.75;;;;;;;22.35;68.53;100486.41;5074095;28;20047;-46
2022/08/16 04:09:38;;;;;;;12.13;8.48;;;;;;;22.33;68.81;100480.38;5077111;28;20065;-53
2022/08/16 04:12:10;;;;;;;13.02;9.38;;;;;;;22.32;68.71;100492.63;5060807;28;20043;-50
2022/08/16 04:15:01;;;;;;;13.73;8.15;;;;;;;22.31;68.68;100488.25;5066267;28;20101;-49
2022/08/16 04:17:31;;;;;;;12.32;8.43;;;;;;;22.27;69.19;100490.13;5059939;28;20045;-50
2022/08/16 04:20:06;;;;;;;19.13;10.35;;;;;;;22.21;69.55;100497.09;5066470;28;20043;-51
2022/08/16 04:22:54;;;;;;;12.77;8.68;;;;;;;22.20;69.38;100495.44;5064807;28;20063;-55
2022/08/16 04:25:24;;;;;;;15.27;9.73;;;;;;;22.14;69.95;100494.91;5078799;28;20040;-53
2022/08/16 04:27:53;;;;;;;13.38;8.35;;;;;;;22.11;70.06;100495.63;5077813;28;20040;-51
2022/08/16 04:30:23;;;;;;;14.10;8.25;;;;;;;22.11;69.80;100499.19;5090921;28;20442;-53
2022/08/16 04:33:02;;;;;;;14.52;8.18;;;;;;;22.13;69.55;100501.63;5091270;28;20040;-51
2022/08/16 04:35:34;;;;;;;11.07;7.90;;;;;;;22.13;69.82;100501.63;5077613;28;20573;-49
2022/08/16 04:38:06;;;;;;;13.57;9.88;;;;;;;22.12;69.53;100503.56;5062017;28;20430;-49
2022/08/16 04:40:49;;;;;;;11.77;8.32;;;;;;;22.10;69.80;100494.81;5075647;28;20032;-50
2022/08/16 04:43:18;;;;;;;12.45;8.32;;;;;;;22.08;70.04;100497.16;5077381;28;20503;-50
2022/08/16 04:45:46;;;;;;;13.95;8.77;;;;;;;22.06;70.30;100499.47;5095983;28;20495;-50
2022/08/16 04:48:28;;;;;;;12.38;7.97;;;;;;;22.06;70.22;100499.47;5077308;28;20057;-50
2022/08/16 04:51:06;;;;;;;12.70;8.07;;;;;;;22.10;70.08;100494.81;5063310;28;20050;-52
2022/08/16 04:53:49;;;;;;;12.05;7.68;;;;;;;22.09;70.17;100504.28;5063034;28;20040;-52
2022/08/16 04:56:19;;;;;;;19.23;8.80;;;;;;;22.09;70.14;100509.84;5061464;28;20502;-48
2022/08/16 04:58:49;;;;;;;14.40;8.43;;;;;;;22.07;70.24;100508.59;5094317;28;20044;-49
2022/08/16 05:01:19;;;;;;;15.05;8.90;;;;;;;22.03;70.32;100504.91;5059917;28;20040;-49
2022/08/16 05:03:47;;;;;;;10.75;7.72;;;;;;;22.01;70.55;100513.59;5060461;28;20089;-48
2022/08/16 05:06:41;;;;;;;13.15;9.90;;;;;;;21.98;70.76;100514.28;5069914;28;20032;-49
2022/08/16 05:09:38;;;;;;;12.18;9.05;;;;;;;21.92;71.07;100518.47;5090595;28;20059;-51
2022/08/16 05:12:12;;;;;;;10.82;8.48;;;;;;;21.95;70.91;100520.53;5091836;28;20032;-50
2022/08/16 05:14:48;;;;;;;11.85;8.55;;;;;;;22.01;70.91;100516.38;5062962;28;20028;-51
2022/08/16 05:17:33;;;;;;;15.13;9.48;;;;;;;22.05;70.59;100522.81;5077293;28;20044;-49
2022/08/16 05:20:06;;;;;;;13.88;9.38;;;;;;;22.06;70.50;100518.88;5060312;28;20046;-46
2022/08/16 05:22:56;;;;;;;14.10;9.25;;;;;;;22.08;70.48;100518.50;5061847;28;20086;-46
2022/08/16 05:25:24;;;;;;;14.82;10.02;;;;;;;22.04;70.32;100515.66;5060376;28;20449;-49
2022/08/16 05:28:09;;;;;;;16.85;10.73;;;;;;;22.00;70.73;100525.81;5076802;28;20031;-51
2022/08/16 05:30:43;;;;;;;13.38;8.98;;;;;;;21.99;70.67;100521.47;5060912;28;20040;-52
2022/08/16 05:33:20;;;;;;;12.48;9.20;;;;;;;22.00;70.69;100528.59;5075515;28;20499;-52
2022/08/16 05:35:49;;;;;;;13.88;9.55;;;;;;;22.02;70.65;100531.84;5060239;28;20510;-52
2022/08/16 05:38:54;;;;;;;14.38;9.25;;;;;;;22.03;70.75;100533.47;5085085;28;20052;-52
2022/08/16 05:41:26;;;;;;;16.15;10.25;;;;;;;22.07;70.35;100539.09;5076715;28;20050;-53
2022/08/16 05:43:54;;;;;;;15.25;10.68;;;;;;;22.08;70.33;100544.31;5075489;28;20093;-52
2022/08/16 05:46:34;;;;;;;11.88;9.43;;;;;;;22.10;70.32;100543.94;5076627;28;20046;-52
2022/08/16 05:49:15;;;;;;;11.98;9.48;;;;;;;22.10;70.34;100544.78;5094189;28;20040;-47
2022/08/16 05:51:53;;;;;;;14.40;10.13;;;;;;;22.09;70.34;100540.38;5076467;28;20071;-51
2022/08/16 05:54:22;;;;;;;13.48;10.43;;;;;;;22.09;70.48;100543.13;5075052;28;20050;-56
2022/08/16 05:56:56;;;;;;;15.30;10.43;;;;;;;22.10;70.21;100544.78;5076318;28;20514;-47
2022/08/16 05:59:44;;;;;;;17.02;11.13;;;;;;;22.15;70.04;100553.97;4946147;28;10000521;-47
2022/08/16 06:02:15;;;;;;;17.33;11.02;;;;;;;22.15;70.38;100545.66;5073371;28;20249;-52
2022/08/16 06:04:45;;;;;;;16.02;10.73;;;;;;;22.15;70.24;100556.75;5055472;28;20048;-51
2022/08/16 06:07:16;;;;;;;14.52;11.43;;;;;;;22.17;70.30;100554.44;5089795;28;20089;-53
2022/08/16 06:09:58;;;;;;;15.90;11.25;;;;;;;22.16;70.39;100558.38;5072682;28;20068;-53
2022/08/16 06:12:29;;;;;;;19.23;12.02;;;;;;;22.15;70.61;100559.53;5056110;28;20052;-56
2022/08/16 06:15:05;;;;;;;16.30;11.70;;;;;;;22.12;70.55;100559.06;5088415;28;20043;-54
2022/08/16 06:17:39;;;;;;;16.80;11.82;;;;;;;22.12;70.83;100564.63;5091116;28;20047;-53
2022/08/16 06:20:23;;;;;;;16.83;11.65;;;;;;;22.13;70.38;100559.91;5041235;28;20036;-55
2022/08/16 06:23:03;;;;;;;18.30;12.80;;;;;;;22.16;70.90;100559.19;5058148;28;20051;-52
2022/08/16 06:25:55;;;;;;;15.32;11.60;;;;;;;22.18;70.76;100561.63;5071748;28;20513;-53
2022/08/16 06:28:27;;;;;;;15.80;11.80;;;;;;;22.19;70.69;100561.25;5075772;28;20051;-49
2022/08/16 06:31:03;;;;;;;15.43;11.48;;;;;;;22.20;70.88;100565.69;5074352;28;20032;-56
2022/08/16 06:33:31;;;;;;;17.70;12.32;;;;;;;22.19;71.17;100564.03;5075540;28;20036;-54
2022/08/16 06:36:12;;;;;;;15.05;11.35;;;;;;;22.20;70.93;100567.59;5074076;28;20055;-50
2022/08/16 06:38:46;;;;;;;20.02;11.75;;;;;;;22.22;70.99;100568.91;5061904;28;20043;-51
2022/08/16 06:41:40;;;;;;;17.98;12.00;;;;;;;22.25;70.99;100572.97;5074897;28;20043;-55
2022/08/16 06:44:20;;;;;;;16.63;11.75;;;;;;;22.28;71.04;100566.69;5060599;28;20043;-56
2022/08/16 06:46:57;;;;;;;16.75;11.48;;;;;;;22.32;70.82;100573.13;5072470;28;20036;-52
2022/08/16 06:49:29;;;;;;;15.05;11.63;;;;;;;22.33;70.48;100564.47;5075285;28;20101;-54
2022/08/16 06:52:00;;;;;;;16.98;12.07;;;;;;;22.36;70.69;100564.91;5075231;28;20076;-52
2022/08/16 06:54:35;;;;;;;18.70;12.73;;;;;;;22.36;70.72;100562.94;5075608;28;20044;-52
2022/08/16 06:57:05;;;;;;;18.42;12.95;;;;;;;22.37;70.74;100567.34;5073956;28;20092;-56
2022/08/16 06:59:43;;;;;;;24.10;16.70;;;;;;;22.39;70.64;100567.78;5063081;28;20044;-54
2022/08/16 07:02:27;;;;;;;20.17;13.32;;;;;;;22.40;70.79;100560.28;5075025;28;20081;-50
2022/08/16 07:05:03;;;;;;;18.98;14.55;;;;;;;22.42;70.63;100575.41;5075371;28;20455;-53
2022/08/16 07:07:50;;;;;;;23.02;15.27;;;;;;;22.43;70.61;100574.25;5059216;28;20036;-54
2022/08/16 07:10:21;;;;;;;20.95;14.40;;;;;;;22.41;70.04;100582.13;5059383;28;20036;-55
2022/08/16 07:12:53;;;;;;;20.33;13.52;;;;;;;22.37;69.59;100586.78;5074692;28;20110;-54
2022/08/16 07:15:33;;;;;;;19.42;13.20;;;;;;;22.40;69.23;100579.72;5060376;28;20036;-55
2022/08/16 07:18:04;;;;;;;20.77;13.63;;;;;;;22.38;69.05;100584.81;5073990;28;20044;-53
2022/08/16 07:20:33;;;;;;;21.08;13.63;;;;;;;22.36;69.11;100589.91;5075136;28;20040;-55
2022/08/16 07:23:15;;;;;;;22.38;13.60;;;;;;;22.35;68.87;100591.88;5057347;28;20044;-55
2022/08/16 07:25:51;;;;;;;40.10;18.15;;;;;;;22.35;68.70;100591.88;5059343;28;20043;-53
2022/08/16 07:28:21;;;;;;;22.17;12.13;;;;;;;22.34;68.44;100593.03;5058792;28;20040;-55
2022/08/16 07:30:54;;;;;;;34.50;16.95;;;;;;;22.41;68.36;100597.97;5074538;28;20418;-52
2022/08/16 07:33:43;;;;;;;41.05;16.80;;;;;;;22.52;67.72;100593.53;5061594;28;20433;-53
2022/08/16 07:36:27;;;;;;;27.88;13.40;;;;;;;22.61;67.03;100594.19;5091623;28;20056;-50
2022/08/16 07:38:57;;;;;;;19.73;11.57;;;;;;;22.67;66.68;100600.28;5074408;28;20055;-51
2022/08/16 07:41:28;;;;;;;18.27;11.35;;;;;;;22.67;66.50;100601.06;5093444;28;20040;-51
2022/08/16 07:44:00;;;;;;;18.15;11.88;;;;;;;22.71;66.24;100601.19;5079497;28;20067;-48
2022/08/16 07:46:30;;;;;;;14.38;9.15;;;;;;;22.74;66.18;100606.03;5079017;28;20088;-50
2022/08/16 07:49:26;;;;;;;15.35;11.48;;;;;;;22.71;66.35;100617.84;5082555;28;20518;-51
2022/08/16 07:52:02;;;;;;;14.27;9.50;;;;;;;22.71;66.10;100604.75;5078620;28;20094;-55
2022/08/16 07:54:48;;;;;;;13.70;9.35;;;;;;;22.75;65.98;100605.69;5064329;28;20301;-54
2022/08/16 07:57:22;;;;;;;16.65;9.80;;;;;;;22.82;66.00;100616.16;5060931;28;20048;-54
2022/08/16 07:59:52;;;;;;;16.10;9.60;;;;;;;22.89;65.51;100615.53;5075790;28;20048;-56
2022/08/16 08:02:24;;;;;;;14.68;10.88;;;;;;;22.91;65.81;100614.00;5078242;28;20043;-54
2022/08/16 08:04:57;;;;;;;14.25;9.38;;;;;;;22.91;65.58;100619.56;5094580;28;20036;-53
2022/08/16 08:07:28;;;;;;;16.45;11.73;;;;;;;22.88;66.37;100617.50;5061905;28;20502;-51
2022/08/16 08:10:00;;;;;;;17.52;9.60;;;;;;;22.88;66.67;100617.50;5095140;28;20070;-54
2022/08/16 08:12:32;;;;;;;16.73;10.98;;;;;;;22.91;66.86;100616.00;5076682;28;20044;-53
2022/08/16 08:15:09;;;;;;;15.10;8.55;;;;;;;22.97;65.90;100615.38;5072472;28;20042;-54
2022/08/16 08:17:40;;;;;;;16.75;10.68;;;;;;;23.02;66.29;100616.28;5060453;28;20051;-56
2022/08/16 08:20:32;;;;;;;17.83;9.95;;;;;;;23.09;65.84;100616.47;5077977;28;20054;-52
2022/08/16 08:23:01;;;;;;;14.57;9.05;;;;;;;23.15;65.62;100620.59;5077642;28;20036;-53
2022/08/16 08:25:38;;;;;;;13.40;9.18;;;;;;;23.18;65.16;100623.47;5082186;28;20073;-53
2022/08/16 08:28:26;;;;;;;14.13;10.02;;;;;;;23.21;65.42;100624.75;5056403;28;20043;-55
2022/08/16 08:31:02;;;;;;;11.90;8.00;;;;;;;23.23;65.18;100632.72;5075043;28;20070;-53
2022/08/16 08:33:35;;;;;;;11.00;7.45;;;;;;;23.24;65.19;100632.38;5083931;28;20047;-52
2022/08/16 08:36:06;;;;;;;11.63;8.68;;;;;;;23.27;65.38;100631.63;5072261;28;20104;-54
2022/08/16 08:38:35;;;;;;;12.35;9.02;;;;;;;23.29;65.35;100629.31;5077510;28;20044;-53
2022/08/16 08:41:14;;;;;;;12.63;8.20;;;;;;;23.32;65.00;100625.00;5077900;28;20402;-53
2022/08/16 08:43:50;;;;;;;10.90;8.00;;;;;;;23.35;64.35;100619.50;5062821;28;20040;-56
2022/08/16 08:46:20;;;;;;;14.88;7.68;;;;;;;23.39;64.03;100625.97;5077928;28;20044;-54
2022/08/16 08:48:52;;;;;;;11.60;7.22;;;;;;;23.42;64.06;100630.00;5078228;28;20058;-51
2022/08/16 08:51:27;;;;;;;11.27;7.15;;;;;;;23.43;63.65;100625.25;5077718;28;20449;-53
2022/08/16 08:54:07;;;;;;;16.50;7.90;;;;;;;23.46;63.41;100635.66;5093141;28;20036;-54
2022/08/16 08:56:40;;;;;;;12.45;7.50;;;;;;;23.48;63.16;100638.91;5062785;28;20036;-54
2022/08/16 08:59:26;;;;;;;11.43;6.85;;;;;;;23.51;63.05;100638.19;5077440;28;20545;-49
2022/08/16 09:01:55;;;;;;;11.55;5.72;;;;;;;23.55;63.14;100639.06;5078278;28;20040;-47
2022/08/16 09:04:46;;;;;;;16.35;7.90;;;;;;;23.59;62.59;100639.94;5077426;28;20055;-52
2022/08/16 09:07:20;;;;;;;11.98;7.05;;;;;;;23.61;62.31;100643.19;5077498;28;20052;-49
2022/08/16 09:09:52;;;;;;;12.43;5.78;;;;;;;23.65;60.83;100649.63;5077075;28;20032;-54
2022/08/16 09:12:36;;;;;;;13.25;6.00;;;;;;;23.67;59.90;100640.91;5063883;28;20491;-50
2022/08/16 09:15:16;;;;;;;9.40;6.22;;;;;;;23.68;60.16;100643.34;5077305;28;20479;-52
2022/08/16 09:17:52;;;;;;;13.48;7.38;;;;;;;23.71;59.49;100642.63;5072577;28;20511;-55
2022/08/16 09:20:28;;;;;;;12.07;6.95;;;;;;;23.75;59.01;100637.97;5076130;28;20506;-53
2022/08/16 09:22:57;;;;;;;10.55;5.82;;;;;;;23.78;59.34;100636.44;5081391;28;20040;-52
2022/08/16 09:25:54;;;;;;;9.82;5.80;;;;;;;23.82;59.14;100640.13;5087431;28;20036;-52
2022/08/16 09:28:22;;;;;;;11.48;6.50;;;;;;;23.87;58.92;100644.59;5094862;28;20103;-53
2022/08/16 09:31:19;;;;;;;11.35;6.35;;;;;;;23.91;58.70;100651.88;5093224;28;20032;-56
2022/08/16 09:33:47;;;;;;;15.48;5.95;;;;;;;23.95;58.17;100646.38;5094967;28;20418;-51
2022/08/16 09:36:19;;;;;;;12.93;5.88;;;;;;;23.96;58.13;100659.13;5094439;28;20052;-53
2022/08/16 09:39:02;;;;;;;11.98;6.18;;;;;;;24.01;58.35;100656.06;5093857;28;20040;-52
2022/08/16 09:41:30;;;;;;;12.57;5.75;;;;;;;24.06;58.37;100657.75;5077037;28;20040;-55
2022/08/16 09:43:59;;;;;;;11.65;6.28;;;;;;;24.14;57.35;100654.75;5094221;28;20055;-49
2022/08/16 09:46:46;;;;;;;13.05;6.10;;;;;;;24.18;56.91;100652.06;5082206;28;20047;-49
2022/08/16 09:49:16;;;;;;;14.23;7.10;;;;;;;24.21;56.68;100666.03;5094131;28;20138;-49
2022/08/16 09:51:52;;;;;;;13.00;6.13;;;;;;;24.24;56.41;100662.53;5093451;28;20043;-49
2022/08/16 09:54:25;;;;;;;11.38;6.13;;;;;;;24.27;56.49;100662.97;5094103;28;20495;-51
2022/08/16 09:57:00;;;;;;;10.00;5.78;;;;;;;24.30;56.79;100662.25;5077777;28;20055;-53
2022/08/16 09:59:28;;;;;;;13.93;5.93;;;;;;;24.35;56.42;100653.59;5093231;28;20410;-53
2022/08/16 10:01:57;;;;;;;9.80;5.97;;;;;;;24.39;55.61;100654.47;5092446;28;20090;-51
2022/08/16 10:04:25;;;;;;;14.43;6.25;;;;;;;24.42;55.22;100648.19;5075119;28;20032;-51
2022/08/16 10:07:02;;;;;;;14.80;6.13;;;;;;;24.44;54.98;100651.41;5059135;28;20036;-53
2022/08/16 10:09:43;;;;;;;11.07;5.80;;;;;;;24.48;54.61;100651.50;5077927;28;20044;-52
2022/08/16 10:15:27;;;;;;;13.75;5.82;;;;;;;24.55;54.40;100651.63;5093089;28;20072;-50
2022/08/16 10:17:57;;;;;;;11.52;5.88;;;;;;;24.61;53.69;100656.56;5093226;28;20422;-48
2022/08/16 10:20:34;;;;;;;9.45;5.63;;;;;;;24.63;53.34;100657.00;5094280;28;20502;-49
2022/08/16 10:23:03;;;;;;;10.05;5.18;;;;;;;24.69;53.00;100665.06;5059580;28;20036;-48
2022/08/16 10:25:41;;;;;;;10.85;6.07;;;;;;;24.71;52.40;100659.94;4339581;28;10000555;-53
2022/08/16 10:28:29;;;;;;;13.45;5.95;;;;;;;24.73;52.23;100663.16;5089420;28;20056;-50
2022/08/16 10:31:08;;;;;;;10.13;5.38;;;;;;;24.78;52.25;100660.06;5090180;28;20058;-50
2022/08/16 10:33:43;;;;;;;9.27;5.07;;;;;;;24.83;51.63;100652.19;5072495;28;20695;-49
2022/08/16 10:36:13;;;;;;;9.65;4.70;;;;;;;24.88;51.91;100662.25;5090070;28;20052;-49
2022/08/16 10:39:01;;;;;;;9.25;5.20;;;;;;;24.94;51.24;100657.16;5089733;28;20032;-51
2022/08/16 10:41:31;;;;;;;7.75;4.85;;;;;;;24.97;50.79;100670.38;5090680;28;20445;-49
2022/08/16 10:43:59;;;;;;;11.43;5.82;;;;;;;25.01;50.36;100669.25;5071727;28;20689;-47
2022/08/16 10:46:27;;;;;;;10.35;4.93;;;;;;;25.04;50.03;100667.72;5090557;28;20044;-50
2022/08/16 10:49:10;;;;;;;13.77;6.10;;;;;;;25.06;50.71;100670.91;5089417;28;20051;-55
2022/08/16 10:51:38;;;;;;;12.60;5.28;;;;;;;25.09;50.49;100668.22;5072033;28;20055;-51
2022/08/16 10:54:26;;;;;;;7.80;5.03;;;;;;;25.06;50.12;100668.97;5078487;28;20116;-50
2022/08/16 10:56:57;;;;;;;20.25;5.30;;;;;;;25.05;49.52;100664.53;5089518;28;20133;-51
2022/08/16 10:59:27;;;;;;;12.43;5.00;;;;;;;25.08;49.05;100666.59;5089293;28;20056;-50
2022/08/16 11:02:06;;;;;;;11.00;5.07;;;;;;;25.16;48.96;100663.91;5072299;28;20040;-50
2022/08/16 11:04:54;;;;;;;9.48;4.88;;;;;;;25.25;49.13;100670.09;5088223;28;20113;-52
2022/08/16 11:07:39;;;;;;;9.48;5.30;;;;;;;25.31;49.06;100677.00;5073935;28;20043;-47
2022/08/16 11:10:15;;;;;;;12.10;5.40;;;;;;;25.34;48.52;100673.44;5083838;28;20036;-50
2022/08/16 11:13:05;;;;;;;13.10;5.93;;;;;;;25.36;49.09;100675.88;5089876;28;20040;-53
2022/08/16 11:15:56;;;;;;;11.60;5.55;;;;;;;25.42;49.43;100677.97;5088585;28;20490;-51
2022/08/16 11:18:24;;;;;;;10.65;5.45;;;;;;;25.47;49.33;100677.66;5071845;28;20052;-53
2022/08/16 11:21:13;;;;;;;8.18;4.70;;;;;;;25.54;48.34;100678.94;5071154;28;20051;-51
2022/08/16 11:23:56;;;;;;;10.75;4.75;;;;;;;25.61;47.72;100668.69;5073887;28;20128;-54
2022/08/16 11:26:27;;;;;;;10.80;4.90;;;;;;;25.65;47.14;100671.56;5089477;28;20290;-54
2022/08/16 11:28:56;;;;;;;8.23;4.78;;;;;;;25.68;46.92;100684.75;5071588;28;20047;-50
2022/08/16 11:31:41;;;;;;;10.32;4.85;;;;;;;25.71;47.49;100678.41;5089418;28;20477;-51
2022/08/16 11:34:20;;;;;;;11.25;5.63;;;;;;;25.69;46.96;100678.81;5073490;28;20040;-53
2022/08/16 11:36:50;;;;;;;11.40;4.93;;;;;;;25.65;46.41;100688.31;5071389;28;20040;-52
2022/08/16 11:39:28;;;;;;;7.32;4.35;;;;;;;25.64;45.66;100689.47;5073067;28;20051;-53
2022/08/16 11:41:56;;;;;;;13.60;5.25;;;;;;;25.62;45.73;100692.66;5071169;28;20405;-52
2022/08/16 11:44:25;;;;;;;8.50;4.18;;;;;;;25.61;45.28;100695.81;5089405;28;20040;-54
2022/08/16 11:47:12;;;;;;;9.38;4.13;;;;;;;25.58;45.15;100693.78;5071139;28;20047;-55
2022/08/16 11:49:40;;;;;;;10.93;4.20;;;;;;;25.56;45.06;100696.13;5069942;28;20040;-53
2022/08/16 11:52:08;;;;;;;11.10;4.45;;;;;;;25.54;45.41;100704.06;5071009;28;20043;-53
2022/08/16 11:54:36;;;;;;;9.02;4.22;;;;;;;25.53;45.58;100708.03;5067357;28;20036;-52
2022/08/16 11:57:04;;;;;;;7.40;4.45;;;;;;;25.50;45.82;100710.38;5090976;28;20040;-52
2022/08/16 11:59:37;;;;;;;8.77;4.65;;;;;;;25.51;45.77;100716.78;5075054;28;20052;-52
2022/08/16 12:02:07;;;;;;;8.13;4.72;;;;;;;25.50;46.33;100706.81;5092442;28;20052;-53